• Join FlightAware (Why Join?)
  • Login
  • US Flag 
03:31PM EST


 

Airport Tracker/Info


-or-


 

Live Flight TrackerFlight Track Log ✈ ASQ6041 ✈ 20-Apr-2013 ✈ KORF - KIAD

Flight Track Log - Related Links

Times and Time Zones

All times are in EDT time to prevent confusion due to time zone crossing. See the ASQ6041 flight status page for this flight to view local times or setup timezone preferences in your user account.

Time Position Orientation Groundspeed Altitude Reporting Facility
EDT Latitude Longitude Course Direction KTS MPH feet Rate Location/Type
11:49AM 36.9078 -76.1894 300° West 149 171 900  Level Washington Center
11:50AM 36.9581 -76.1378 39° Northeast 183 211 4,000 1,800 Climbing Washington Center
11:51AM 36.9953 -76.1769 320° Northwest 227 261 5,100 540 Climbing Washington Center
11:53AM 37.0739 -76.5810 302° West  Level FlightAware Approximate
11:53AM 36.9928 -76.2603 268° West 250 288 5,100  Level Washington Center
11:54AM 37.1204 -76.6781 300° West  Level FlightAware Approximate
11:54AM 36.9881 -76.3458 266° West 254 292 5,300  Level Washington Center
11:54AM 36.9881 -76.3589 270° West 253 291 5,900 2,880 Climbing Washington Center
11:55AM 37.0064 -76.4372 286° West 236 272 8,900 2,340 Climbing Washington Center
11:56AM 37.0433 -76.5131 301° West 236 272 10,600 1,080 Climbing Washington Center
11:57AM 37.0844 -76.5994 301° West 267 307 11,100 660 Climbing Washington Center
11:58AM 37.1314 -76.7017 300° West 308 354 12,000 900 Climbing Washington Center
11:59AM 37.1806 -76.8039 301° West 330 380 13,000 900 Climbing Washington Center
12:00PM 37.2317 -76.9117 301° West 349 402 13,900 900 Climbing Washington Center
12:01PM 37.2825 -77.0250 299° West 364 419 14,900 960 Climbing Washington Center
12:02PM 37.3436 -77.1383 304° West 364 419 15,900 900 Climbing Washington Center
12:03PM 37.4258 -77.2211 321° Northwest 364 419 16,800 900 Climbing Washington Center
12:04PM 37.5361 -77.2547 346° North 378 435 17,800 480 Climbing Washington Center
12:05PM 37.6503 -77.2889 347° North 390 449 17,800  Level Washington Center
12:06PM 37.7667 -77.3203 348° North 410 472 17,800  Level Washington Center
12:07PM 37.8808 -77.3544 347° North 422 486 17,800 -1,500 Level Washington Center
12:08PM 37.9889 -77.3833 348° North 417 480 14,900 -3,180 Descending Washington Center
12:09PM 38.0947 -77.4203 345° North 405 466 11,500 -2,460 Descending Washington Center
12:10PM 38.1967 -77.4358 353° North 384 442 10,000 -900 Descending Washington Center
12:11PM 38.2806 -77.3983 19° North 340 391 9,800 -600 Descending Washington Center
12:12PM 38.3617 -77.4081 355° North 315 362 8,900 -1,020 Descending Washington Center
12:13PM 38.4325 -77.4231 351° North 281 323 7,800 -960 Descending Washington Center
12:14PM 38.4989 -77.4356 352° North 257 296 7,000 -780 Descending Washington Center
12:15PM 38.5656 -77.4531 348° North 245 282 6,300 -780 Descending Washington Center
12:16PM 38.6319 -77.4653 352° North 240 276 5,500 -780 Descending Washington Center
12:16PM 38.6833 -77.4667 359° North 246 283 5,100 -780 Descending Potomac TRACON
12:17PM 38.7500 -77.4667 360° North 253 291 4,300 -1,200 Descending Potomac TRACON
12:18PM 38.8167 -77.4667 360° North 246 283 2,900 -1,560 Descending Potomac TRACON